Terminal Aerodrome Forecast
Issued by NWS

Home | Current Version | Previous Version | Text Only | Print | Product List | Glossary On
Versions: 1 2 3 4 5 6 7 8 9 10 11 12 13 14 15 16 17 18 19 20 21 22 23 24 25 26 27 28 29 30 31 32 33 34 35 36 37 38 39 40 41 42 43 44 45 46 47 48
000
FTUS45 KCYS 061120
TAFLAR
TAF
KLAR 061120Z 0612/0712 36007KT 5SM BR SCT007 OVC035
     FM061500 31008KT P6SM VCSH SCT015 BKN050
     FM061900 33010KT P6SM VCTS BKN030CB
     FM070100 33010KT 5SM -SHRA SCT007 OVC015=

USA.gov is the U.S. government's official web portal to all federal, state and local government web resources and services.